Little Chute, Wisconsin
Current Conditions -  °F | °C
As of 10:45 AM on Thursday 23 Oct 2014 (Local Time) from KATW Reporting Station
Broken Clouds Broken Clouds  
Wind Chill: 44°   Ceiling: 4900
Heat Index: 48°   Visibility: 10mi
Dew Point: 37°   Wind: 10mph
Humidity: 66%   Direction: 170°S
Pressure: 30.13"   Gusts: 20mph
Location:  44.28°N, 88.32°W
Report Text: KATW 231545Z 17009G17KT 10SM BKN049 BKN090 09/03 A3013
Loading
Personal Weather Stations






























Interactive Weather Map
Tropical Storm Tracking
New forecast layout! Learn more

10-Day Weather Forecast

Advertisements
Track Severe Weather on mobile